sensor_id;sensor_type;location;lat;lon;timestamp;temperature;humidity
1447;DHT22;717;51.522;7.266;2022-07-25T00:01:56;27.30;90.90
1447;DHT22;717;51.522;7.266;2022-07-25T00:04:23;27.20;90.80
1447;DHT22;717;51.522;7.266;2022-07-25T00:06:50;27.20;90.80
1447;DHT22;717;51.522;7.266;2022-07-25T00:09:18;27.20;90.70
1447;DHT22;717;51.522;7.266;2022-07-25T00:11:45;27.20;90.50
1447;DHT22;717;51.522;7.266;2022-07-25T00:14:12;27.10;90.30
1447;DHT22;717;51.522;7.266;2022-07-25T00:16:39;27.10;90.30
1447;DHT22;717;51.522;7.266;2022-07-25T00:19:06;27.10;90.10
1447;DHT22;717;51.522;7.266;2022-07-25T00:21:33;27.10;90.10
1447;DHT22;717;51.522;7.266;2022-07-25T00:24:00;27.10;89.80
1447;DHT22;717;51.522;7.266;2022-07-25T00:26:29;27.10;89.20
1447;DHT22;717;51.522;7.266;2022-07-25T00:28:55;27.00;88.90
1447;DHT22;717;51.522;7.266;2022-07-25T00:31:22;27.00;88.60
1447;DHT22;717;51.522;7.266;2022-07-25T00:33:49;27.00;88.20
1447;DHT22;717;51.522;7.266;2022-07-25T00:36:16;27.00;87.90
1447;DHT22;717;51.522;7.266;2022-07-25T00:38:42;27.00;87.60
1447;DHT22;717;51.522;7.266;2022-07-25T00:41:09;27.00;87.70
1447;DHT22;717;51.522;7.266;2022-07-25T00:43:41;27.00;87.70
1447;DHT22;717;51.522;7.266;2022-07-25T00:46:11;27.00;87.50
1447;DHT22;717;51.522;7.266;2022-07-25T00:48:38;27.00;87.30
1447;DHT22;717;51.522;7.266;2022-07-25T00:51:05;26.90;87.20
1447;DHT22;717;51.522;7.266;2022-07-25T00:53:33;26.90;87.10
1447;DHT22;717;51.522;7.266;2022-07-25T00:56:00;26.90;87.10
1447;DHT22;717;51.522;7.266;2022-07-25T00:58:27;27.00;87.10
1447;DHT22;717;51.522;7.266;2022-07-25T01:00:56;26.90;86.90
1447;DHT22;717;51.522;7.266;2022-07-25T01:03:23;26.90;86.60
1447;DHT22;717;51.522;7.266;2022-07-25T01:05:50;26.90;86.50
1447;DHT22;717;51.522;7.266;2022-07-25T01:08:17;26.90;86.50
1447;DHT22;717;51.522;7.266;2022-07-25T01:10:44;26.90;86.80
1447;DHT22;717;51.522;7.266;2022-07-25T01:13:12;26.90;86.80
1447;DHT22;717;51.522;7.266;2022-07-25T01:15:39;26.90;86.60
1447;DHT22;717;51.522;7.266;2022-07-25T01:18:07;26.90;87.20
1447;DHT22;717;51.522;7.266;2022-07-25T01:20:35;26.90;86.30
1447;DHT22;717;51.522;7.266;2022-07-25T01:23:02;26.90;86.20
1447;DHT22;717;51.522;7.266;2022-07-25T01:25:29;26.90;86.30
1447;DHT22;717;51.522;7.266;2022-07-25T01:27:56;26.90;86.10
1447;DHT22;717;51.522;7.266;2022-07-25T01:30:23;26.90;86.10
1447;DHT22;717;51.522;7.266;2022-07-25T01:32:51;26.90;86.00
1447;DHT22;717;51.522;7.266;2022-07-25T01:35:18;26.90;86.10
1447;DHT22;717;51.522;7.266;2022-07-25T01:37:46;26.90;86.20
1447;DHT22;717;51.522;7.266;2022-07-25T01:40:13;26.90;86.10
1447;DHT22;717;51.522;7.266;2022-07-25T01:42:40;26.90;86.20
1447;DHT22;717;51.522;7.266;2022-07-25T01:45:08;26.90;86.30
1447;DHT22;717;51.522;7.266;2022-07-25T01:47:35;26.90;86.40
1447;DHT22;717;51.522;7.266;2022-07-25T01:50:02;26.80;86.50
1447;DHT22;717;51.522;7.266;2022-07-25T01:52:29;26.80;86.40
1447;DHT22;717;51.522;7.266;2022-07-25T01:54:57;26.80;86.50
1447;DHT22;717;51.522;7.266;2022-07-25T01:57:23;26.80;86.40
1447;DHT22;717;51.522;7.266;2022-07-25T01:59:50;26.80;86.20
1447;DHT22;717;51.522;7.266;2022-07-25T02:02:17;26.80;86.10
1447;DHT22;717;51.522;7.266;2022-07-25T02:04:44;26.80;86.20
1447;DHT22;717;51.522;7.266;2022-07-25T02:07:10;26.80;86.30
1447;DHT22;717;51.522;7.266;2022-07-25T02:09:37;26.80;86.40
1447;DHT22;717;51.522;7.266;2022-07-25T02:12:07;26.80;86.30
1447;DHT22;717;51.522;7.266;2022-07-25T02:14:34;26.70;86.30
1447;DHT22;717;51.522;7.266;2022-07-25T02:17:01;26.70;86.50
1447;DHT22;717;51.522;7.266;2022-07-25T02:19:28;26.70;86.50
1447;DHT22;717;51.522;7.266;2022-07-25T02:21:54;26.70;86.20
1447;DHT22;717;51.522;7.266;2022-07-25T02:24:21;26.70;86.10
1447;DHT22;717;51.522;7.266;2022-07-25T02:26:48;26.70;86.10
1447;DHT22;717;51.522;7.266;2022-07-25T02:29:17;26.60;87.00
1447;DHT22;717;51.522;7.266;2022-07-25T02:31:43;26.60;86.00
1447;DHT22;717;51.522;7.266;2022-07-25T02:34:11;26.60;85.90
1447;DHT22;717;51.522;7.266;2022-07-25T02:36:38;26.60;85.90
1447;DHT22;717;51.522;7.266;2022-07-25T02:39:05;26.60;85.80
1447;DHT22;717;51.522;7.266;2022-07-25T02:41:31;26.60;85.80
1447;DHT22;717;51.522;7.266;2022-07-25T02:43:58;26.60;85.60
1447;DHT22;717;51.522;7.266;2022-07-25T02:46:26;26.60;85.60
1447;DHT22;717;51.522;7.266;2022-07-25T02:48:53;26.60;85.50
1447;DHT22;717;51.522;7.266;2022-07-25T02:51:20;26.60;85.40
1447;DHT22;717;51.522;7.266;2022-07-25T02:53:47;26.60;85.50
1447;DHT22;717;51.522;7.266;2022-07-25T02:56:13;26.60;85.40
1447;DHT22;717;51.522;7.266;2022-07-25T02:58:40;26.60;85.50
1447;DHT22;717;51.522;7.266;2022-07-25T03:01:07;26.50;85.50
1447;DHT22;717;51.522;7.266;2022-07-25T03:03:36;26.50;85.60
1447;DHT22;717;51.522;7.266;2022-07-25T03:06:03;26.50;85.80
1447;DHT22;717;51.522;7.266;2022-07-25T03:08:30;26.50;85.60
1447;DHT22;717;51.522;7.266;2022-07-25T03:10:57;26.50;85.70
1447;DHT22;717;51.522;7.266;2022-07-25T03:13:24;26.50;85.80
1447;DHT22;717;51.522;7.266;2022-07-25T03:15:51;26.50;85.80
1447;DHT22;717;51.522;7.266;2022-07-25T03:18:18;26.50;85.70
1447;DHT22;717;51.522;7.266;2022-07-25T03:20:46;26.50;85.70
1447;DHT22;717;51.522;7.266;2022-07-25T03:23:12;26.50;85.80
1447;DHT22;717;51.522;7.266;2022-07-25T03:25:39;26.50;85.90
1447;DHT22;717;51.522;7.266;2022-07-25T03:28:06;26.50;86.00
1447;DHT22;717;51.522;7.266;2022-07-25T03:30:32;26.50;86.00
1447;DHT22;717;51.522;7.266;2022-07-25T03:32:59;26.50;86.20
1447;DHT22;717;51.522;7.266;2022-07-25T03:35:26;26.50;86.00
1447;DHT22;717;51.522;7.266;2022-07-25T03:37:54;26.40;85.90
1447;DHT22;717;51.522;7.266;2022-07-25T03:40:21;26.40;86.00
1447;DHT22;717;51.522;7.266;2022-07-25T03:42:47;26.40;86.10
1447;DHT22;717;51.522;7.266;2022-07-25T03:45:14;26.40;86.30
1447;DHT22;717;51.522;7.266;2022-07-25T03:47:42;26.40;86.30
1447;DHT22;717;51.522;7.266;2022-07-25T03:50:09;26.40;86.30
1447;DHT22;717;51.522;7.266;2022-07-25T03:52:36;26.40;86.30
1447;DHT22;717;51.522;7.266;2022-07-25T03:55:07;26.40;86.40
1447;DHT22;717;51.522;7.266;2022-07-25T03:57:34;26.40;86.40
1447;DHT22;717;51.522;7.266;2022-07-25T04:00:01;26.40;86.50
1447;DHT22;717;51.522;7.266;2022-07-25T04:02:28;26.40;86.60
1447;DHT22;717;51.522;7.266;2022-07-25T04:04:55;26.40;86.50
1447;DHT22;717;51.522;7.266;2022-07-25T04:07:22;26.30;86.50
1447;DHT22;717;51.522;7.266;2022-07-25T04:09:49;26.30;86.40
1447;DHT22;717;51.522;7.266;2022-07-25T04:12:17;26.30;86.30
1447;DHT22;717;51.522;7.266;2022-07-25T04:14:44;26.30;86.40
1447;DHT22;717;51.522;7.266;2022-07-25T04:17:10;26.30;86.40
1447;DHT22;717;51.522;7.266;2022-07-25T04:19:37;26.30;86.30
1447;DHT22;717;51.522;7.266;2022-07-25T04:22:04;26.30;86.30
1447;DHT22;717;51.522;7.266;2022-07-25T04:24:31;26.30;86.30
1447;DHT22;717;51.522;7.266;2022-07-25T04:26:57;26.30;86.20
1447;DHT22;717;51.522;7.266;2022-07-25T04:29:25;26.30;86.30
1447;DHT22;717;51.522;7.266;2022-07-25T04:31:52;26.30;86.40
1447;DHT22;717;51.522;7.266;2022-07-25T04:34:19;26.30;86.40
1447;DHT22;717;51.522;7.266;2022-07-25T04:36:46;26.30;86.50
1447;DHT22;717;51.522;7.266;2022-07-25T04:39:13;26.30;86.60
1447;DHT22;717;51.522;7.266;2022-07-25T04:41:39;26.30;86.60
1447;DHT22;717;51.522;7.266;2022-07-25T04:44:06;26.30;86.70
1447;DHT22;717;51.522;7.266;2022-07-25T04:46:34;26.30;86.80
1447;DHT22;717;51.522;7.266;2022-07-25T04:49:01;26.30;86.80
1447;DHT22;717;51.522;7.266;2022-07-25T04:51:28;26.30;86.80
1447;DHT22;717;51.522;7.266;2022-07-25T04:53:55;26.30;87.00
1447;DHT22;717;51.522;7.266;2022-07-25T04:56:21;26.30;87.00
1447;DHT22;717;51.522;7.266;2022-07-25T04:58:48;26.30;87.00
1447;DHT22;717;51.522;7.266;2022-07-25T05:01:15;26.40;87.10
1447;DHT22;717;51.522;7.266;2022-07-25T05:03:43;26.40;87.00
1447;DHT22;717;51.522;7.266;2022-07-25T05:06:09;26.40;87.20
1447;DHT22;717;51.522;7.266;2022-07-25T05:08:36;26.40;87.10
1447;DHT22;717;51.522;7.266;2022-07-25T05:11:03;26.40;87.10
1447;DHT22;717;51.522;7.266;2022-07-25T05:13:30;26.40;87.20
1447;DHT22;717;51.522;7.266;2022-07-25T05:15:57;26.40;87.20
1447;DHT22;717;51.522;7.266;2022-07-25T05:18:24;26.40;87.20
1447;DHT22;717;51.522;7.266;2022-07-25T05:20:52;26.40;87.10
1447;DHT22;717;51.522;7.266;2022-07-25T05:23:19;26.50;87.60
1447;DHT22;717;51.522;7.266;2022-07-25T05:25:46;26.50;87.80
1447;DHT22;717;51.522;7.266;2022-07-25T05:28:12;26.50;87.60
1447;DHT22;717;51.522;7.266;2022-07-25T05:30:40;26.50;87.50
1447;DHT22;717;51.522;7.266;2022-07-25T05:33:06;26.50;87.50
1447;DHT22;717;51.522;7.266;2022-07-25T05:35:33;26.50;87.40
1447;DHT22;717;51.522;7.266;2022-07-25T05:38:01;26.50;87.40
1447;DHT22;717;51.522;7.266;2022-07-25T05:40:28;26.50;87.70
1447;DHT22;717;51.522;7.266;2022-07-25T05:42:55;26.60;88.10
1447;DHT22;717;51.522;7.266;2022-07-25T05:45:22;26.50;88.80
1447;DHT22;717;51.522;7.266;2022-07-25T05:47:48;26.60;88.50
1447;DHT22;717;51.522;7.266;2022-07-25T05:50:15;26.60;88.20
1447;DHT22;717;51.522;7.266;2022-07-25T05:52:42;26.60;88.10
1447;DHT22;717;51.522;7.266;2022-07-25T05:55:10;26.60;88.30
1447;DHT22;717;51.522;7.266;2022-07-25T05:57:38;26.60;88.10
1447;DHT22;717;51.522;7.266;2022-07-25T06:00:06;26.60;88.10
1447;DHT22;717;51.522;7.266;2022-07-25T06:02:33;26.70;88.40
1447;DHT22;717;51.522;7.266;2022-07-25T06:05:00;26.70;88.70
1447;DHT22;717;51.522;7.266;2022-07-25T06:07:27;26.70;88.70
1447;DHT22;717;51.522;7.266;2022-07-25T06:09:53;26.70;88.90
1447;DHT22;717;51.522;7.266;2022-07-25T06:12:21;26.80;88.80
1447;DHT22;717;51.522;7.266;2022-07-25T06:14:48;26.80;88.70
1447;DHT22;717;51.522;7.266;2022-07-25T06:17:15;26.80;88.60
1447;DHT22;717;51.522;7.266;2022-07-25T06:19:42;26.80;88.80
1447;DHT22;717;51.522;7.266;2022-07-25T06:22:08;26.80;88.70
1447;DHT22;717;51.522;7.266;2022-07-25T06:24:35;26.90;88.40
1447;DHT22;717;51.522;7.266;2022-07-25T06:27:02;26.90;88.50
1447;DHT22;717;51.522;7.266;2022-07-25T06:29:31;26.90;88.70
1447;DHT22;717;51.522;7.266;2022-07-25T06:31:58;26.90;88.50
1447;DHT22;717;51.522;7.266;2022-07-25T06:34:25;26.90;88.40
1447;DHT22;717;51.522;7.266;2022-07-25T06:36:52;26.90;88.50
1447;DHT22;717;51.522;7.266;2022-07-25T06:39:19;26.90;88.40
1447;DHT22;717;51.522;7.266;2022-07-25T06:41:46;27.00;88.50
1447;DHT22;717;51.522;7.266;2022-07-25T06:44:12;27.00;88.60
1447;DHT22;717;51.522;7.266;2022-07-25T06:46:40;27.00;88.40
1447;DHT22;717;51.522;7.266;2022-07-25T06:49:07;27.00;88.30
1447;DHT22;717;51.522;7.266;2022-07-25T06:51:34;27.00;88.50
1447;DHT22;717;51.522;7.266;2022-07-25T06:54:01;27.00;88.60
1447;DHT22;717;51.522;7.266;2022-07-25T06:56:28;27.00;88.80
1447;DHT22;717;51.522;7.266;2022-07-25T06:58:57;27.10;88.90
1447;DHT22;717;51.522;7.266;2022-07-25T07:01:25;27.10;89.20
1447;DHT22;717;51.522;7.266;2022-07-25T07:03:53;27.10;89.10
1447;DHT22;717;51.522;7.266;2022-07-25T07:06:20;27.20;89.50
1447;DHT22;717;51.522;7.266;2022-07-25T07:08:47;27.20;89.40
1447;DHT22;717;51.522;7.266;2022-07-25T07:11:13;27.20;89.40
1447;DHT22;717;51.522;7.266;2022-07-25T07:13:41;27.20;89.20
1447;DHT22;717;51.522;7.266;2022-07-25T07:16:09;27.20;89.20
1447;DHT22;717;51.522;7.266;2022-07-25T07:18:37;27.20;89.20
1447;DHT22;717;51.522;7.266;2022-07-25T07:21:05;27.20;89.10
1447;DHT22;717;51.522;7.266;2022-07-25T07:23:32;27.30;88.60
1447;DHT22;717;51.522;7.266;2022-07-25T07:25:59;27.30;88.40
1447;DHT22;717;51.522;7.266;2022-07-25T07:28:26;27.30;88.10
1447;DHT22;717;51.522;7.266;2022-07-25T07:30:53;27.40;88.10
1447;DHT22;717;51.522;7.266;2022-07-25T07:33:19;27.40;87.70
1447;DHT22;717;51.522;7.266;2022-07-25T07:35:46;27.40;87.60
1447;DHT22;717;51.522;7.266;2022-07-25T07:38:14;27.40;87.30
1447;DHT22;717;51.522;7.266;2022-07-25T07:40:42;27.50;87.50
1447;DHT22;717;51.522;7.266;2022-07-25T07:43:09;27.50;87.60
1447;DHT22;717;51.522;7.266;2022-07-25T07:45:35;27.50;87.30
1447;DHT22;717;51.522;7.266;2022-07-25T07:48:04;27.50;87.30
1447;DHT22;717;51.522;7.266;2022-07-25T07:50:31;27.60;87.10
1447;DHT22;717;51.522;7.266;2022-07-25T07:52:58;27.60;86.90
1447;DHT22;717;51.522;7.266;2022-07-25T07:55:27;27.60;87.00
1447;DHT22;717;51.522;7.266;2022-07-25T07:58:14;27.60;86.90
1447;DHT22;717;51.522;7.266;2022-07-25T08:00:42;27.60;87.00
1447;DHT22;717;51.522;7.266;2022-07-25T08:03:09;27.70;87.00
1447;DHT22;717;51.522;7.266;2022-07-25T08:05:39;27.70;87.10
1447;DHT22;717;51.522;7.266;2022-07-25T08:08:07;27.80;86.90
1447;DHT22;717;51.522;7.266;2022-07-25T08:10:37;27.80;87.00
1447;DHT22;717;51.522;7.266;2022-07-25T08:13:12;27.80;87.20
1447;DHT22;717;51.522;7.266;2022-07-25T08:15:40;27.90;88.10
1447;DHT22;717;51.522;7.266;2022-07-25T08:18:07;27.90;87.60
1447;DHT22;717;51.522;7.266;2022-07-25T08:20:34;27.90;87.60
1447;DHT22;717;51.522;7.266;2022-07-25T08:23:01;27.90;87.60
1447;DHT22;717;51.522;7.266;2022-07-25T08:25:28;28.00;87.40
1447;DHT22;717;51.522;7.266;2022-07-25T08:27:57;28.10;87.30
1447;DHT22;717;51.522;7.266;2022-07-25T08:30:24;28.00;87.40
1447;DHT22;717;51.522;7.266;2022-07-25T08:32:52;28.00;87.50
1447;DHT22;717;51.522;7.266;2022-07-25T08:35:22;28.00;87.50
1447;DHT22;717;51.522;7.266;2022-07-25T08:37:49;28.10;87.40
1447;DHT22;717;51.522;7.266;2022-07-25T08:40:18;28.10;87.30
1447;DHT22;717;51.522;7.266;2022-07-25T08:42:46;28.10;87.20
1447;DHT22;717;51.522;7.266;2022-07-25T08:45:15;28.10;87.00
1447;DHT22;717;51.522;7.266;2022-07-25T08:47:46;28.20;86.80
1447;DHT22;717;51.522;7.266;2022-07-25T08:50:16;28.20;86.60
1447;DHT22;717;51.522;7.266;2022-07-25T08:52:45;28.20;86.60
1447;DHT22;717;51.522;7.266;2022-07-25T08:55:14;28.20;86.80
1447;DHT22;717;51.522;7.266;2022-07-25T08:57:42;28.20;86.60
1447;DHT22;717;51.522;7.266;2022-07-25T09:00:10;28.30;86.50
1447;DHT22;717;51.522;7.266;2022-07-25T09:02:39;28.30;87.00
1447;DHT22;717;51.522;7.266;2022-07-25T09:05:07;28.30;87.60
1447;DHT22;717;51.522;7.266;2022-07-25T09:07:36;28.40;87.10
1447;DHT22;717;51.522;7.266;2022-07-25T09:10:14;28.40;87.30
1447;DHT22;717;51.522;7.266;2022-07-25T09:12:48;28.40;87.30
1447;DHT22;717;51.522;7.266;2022-07-25T09:15:22;28.40;87.50
1447;DHT22;717;51.522;7.266;2022-07-25T09:17:51;28.40;87.50
1447;DHT22;717;51.522;7.266;2022-07-25T09:20:19;28.40;87.30
1447;DHT22;717;51.522;7.266;2022-07-25T09:22:47;28.50;87.60
1447;DHT22;717;51.522;7.266;2022-07-25T09:25:24;28.50;87.40
1447;DHT22;717;51.522;7.266;2022-07-25T09:27:54;28.50;87.40
1447;DHT22;717;51.522;7.266;2022-07-25T09:30:23;28.50;87.80
1447;DHT22;717;51.522;7.266;2022-07-25T09:32:59;28.50;87.70
1447;DHT22;717;51.522;7.266;2022-07-25T09:35:30;28.60;87.80
1447;DHT22;717;51.522;7.266;2022-07-25T09:38:11;28.60;87.70
1447;DHT22;717;51.522;7.266;2022-07-25T09:40:39;28.60;87.80
1447;DHT22;717;51.522;7.266;2022-07-25T09:43:07;28.60;87.20
1447;DHT22;717;51.522;7.266;2022-07-25T09:45:34;28.60;87.00
1447;DHT22;717;51.522;7.266;2022-07-25T09:48:04;28.70;86.60
1447;DHT22;717;51.522;7.266;2022-07-25T09:50:32;28.70;86.60
1447;DHT22;717;51.522;7.266;2022-07-25T09:53:00;28.70;86.60
1447;DHT22;717;51.522;7.266;2022-07-25T09:55:28;28.80;87.20
1447;DHT22;717;51.522;7.266;2022-07-25T09:57:55;28.80;87.50
1447;DHT22;717;51.522;7.266;2022-07-25T10:00:24;28.80;87.40
1447;DHT22;717;51.522;7.266;2022-07-25T10:03:13;28.90;87.80
1447;DHT22;717;51.522;7.266;2022-07-25T10:05:54;28.90;88.00
1447;DHT22;717;51.522;7.266;2022-07-25T10:08:25;28.90;87.80
1447;DHT22;717;51.522;7.266;2022-07-25T10:10:53;29.00;87.90
1447;DHT22;717;51.522;7.266;2022-07-25T10:13:28;29.00;87.70
1447;DHT22;717;51.522;7.266;2022-07-25T10:15:55;29.10;87.20
1447;DHT22;717;51.522;7.266;2022-07-25T10:18:26;29.10;87.00
1447;DHT22;717;51.522;7.266;2022-07-25T10:20:54;29.20;87.00
1447;DHT22;717;51.522;7.266;2022-07-25T10:23:23;29.20;86.40
1447;DHT22;717;51.522;7.266;2022-07-25T10:26:07;29.20;86.00
1447;DHT22;717;51.522;7.266;2022-07-25T10:28:36;29.30;86.40
1447;DHT22;717;51.522;7.266;2022-07-25T10:31:14;29.20;86.60
1447;DHT22;717;51.522;7.266;2022-07-25T10:33:45;29.30;86.60
1447;DHT22;717;51.522;7.266;2022-07-25T10:36:12;29.30;86.60
1447;DHT22;717;51.522;7.266;2022-07-25T10:38:39;29.20;86.30
1447;DHT22;717;51.522;7.266;2022-07-25T10:41:11;29.20;86.30
1447;DHT22;717;51.522;7.266;2022-07-25T10:43:39;29.20;86.30
1447;DHT22;717;51.522;7.266;2022-07-25T10:46:11;29.20;86.30
1447;DHT22;717;51.522;7.266;2022-07-25T10:48:40;29.20;86.50
1447;DHT22;717;51.522;7.266;2022-07-25T10:51:09;29.20;86.70
1447;DHT22;717;51.522;7.266;2022-07-25T10:53:38;29.20;86.70
1447;DHT22;717;51.522;7.266;2022-07-25T10:56:13;29.20;86.80
1447;DHT22;717;51.522;7.266;2022-07-25T10:58:48;29.20;86.90
1447;DHT22;717;51.522;7.266;2022-07-25T11:01:20;29.10;87.10
1447;DHT22;717;51.522;7.266;2022-07-25T11:03:47;29.10;87.20
1447;DHT22;717;51.522;7.266;2022-07-25T11:06:27;29.10;87.40
1447;DHT22;717;51.522;7.266;2022-07-25T11:08:55;29.10;87.60
1447;DHT22;717;51.522;7.266;2022-07-25T11:11:35;29.20;87.90
1447;DHT22;717;51.522;7.266;2022-07-25T11:14:02;29.20;87.90
1447;DHT22;717;51.522;7.266;2022-07-25T11:16:29;29.20;87.90
1447;DHT22;717;51.522;7.266;2022-07-25T11:18:56;29.30;88.10
1447;DHT22;717;51.522;7.266;2022-07-25T11:21:24;29.30;87.90
1447;DHT22;717;51.522;7.266;2022-07-25T11:23:52;29.40;87.70
1447;DHT22;717;51.522;7.266;2022-07-25T11:26:18;29.40;87.50
1447;DHT22;717;51.522;7.266;2022-07-25T11:28:47;29.50;87.60
1447;DHT22;717;51.522;7.266;2022-07-25T11:31:16;29.50;87.60
1447;DHT22;717;51.522;7.266;2022-07-25T11:33:46;29.50;86.90
1447;DHT22;717;51.522;7.266;2022-07-25T11:36:13;29.60;86.70
1447;DHT22;717;51.522;7.266;2022-07-25T11:38:47;29.70;85.80
1447;DHT22;717;51.522;7.266;2022-07-25T11:41:14;29.70;85.80
1447;DHT22;717;51.522;7.266;2022-07-25T11:43:47;29.70;85.80
1447;DHT22;717;51.522;7.266;2022-07-25T11:46:14;29.70;85.40
1447;DHT22;717;51.522;7.266;2022-07-25T11:48:42;29.80;85.40
1447;DHT22;717;51.522;7.266;2022-07-25T11:51:11;29.80;84.80
1447;DHT22;717;51.522;7.266;2022-07-25T11:53:40;29.80;84.70
1447;DHT22;717;51.522;7.266;2022-07-25T11:56:14;29.90;84.40
1447;DHT22;717;51.522;7.266;2022-07-25T11:58:41;29.90;84.10
1447;DHT22;717;51.522;7.266;2022-07-25T12:01:13;29.90;84.10
1447;DHT22;717;51.522;7.266;2022-07-25T12:03:40;30.00;83.90
1447;DHT22;717;51.522;7.266;2022-07-25T12:06:08;30.00;83.90
1447;DHT22;717;51.522;7.266;2022-07-25T12:08:37;30.00;83.20
1447;DHT22;717;51.522;7.266;2022-07-25T12:11:17;30.10;82.60
1447;DHT22;717;51.522;7.266;2022-07-25T12:13:44;30.10;82.50
1447;DHT22;717;51.522;7.266;2022-07-25T12:16:10;30.00;82.50
1447;DHT22;717;51.522;7.266;2022-07-25T12:18:38;30.10;82.40
1447;DHT22;717;51.522;7.266;2022-07-25T12:21:05;30.10;82.40
1447;DHT22;717;51.522;7.266;2022-07-25T12:23:31;30.10;82.30
1447;DHT22;717;51.522;7.266;2022-07-25T12:25:58;30.10;82.30
1447;DHT22;717;51.522;7.266;2022-07-25T12:28:27;30.10;81.90
1447;DHT22;717;51.522;7.266;2022-07-25T12:30:54;30.10;81.50
1447;DHT22;717;51.522;7.266;2022-07-25T12:33:21;30.10;82.40
1447;DHT22;717;51.522;7.266;2022-07-25T12:35:47;30.10;82.00
1447;DHT22;717;51.522;7.266;2022-07-25T12:38:14;30.10;81.90
1447;DHT22;717;51.522;7.266;2022-07-25T12:40:41;30.10;81.80
1447;DHT22;717;51.522;7.266;2022-07-25T12:43:08;30.10;82.00
1447;DHT22;717;51.522;7.266;2022-07-25T12:45:36;30.10;82.60
1447;DHT22;717;51.522;7.266;2022-07-25T12:48:03;30.10;82.80
1447;DHT22;717;51.522;7.266;2022-07-25T12:50:30;30.00;82.50
1447;DHT22;717;51.522;7.266;2022-07-25T12:52:57;30.00;82.30
1447;DHT22;717;51.522;7.266;2022-07-25T12:55:24;30.00;82.50
1447;DHT22;717;51.522;7.266;2022-07-25T12:57:51;30.00;82.70
1447;DHT22;717;51.522;7.266;2022-07-25T13:00:19;29.90;82.90
1447;DHT22;717;51.522;7.266;2022-07-25T13:02:49;30.00;82.80
1447;DHT22;717;51.522;7.266;2022-07-25T13:05:17;30.10;82.80
1447;DHT22;717;51.522;7.266;2022-07-25T13:07:44;30.10;82.40
1447;DHT22;717;51.522;7.266;2022-07-25T13:10:13;30.10;82.50
1447;DHT22;717;51.522;7.266;2022-07-25T13:12:41;30.10;82.60
1447;DHT22;717;51.522;7.266;2022-07-25T13:15:09;30.00;82.60
1447;DHT22;717;51.522;7.266;2022-07-25T13:17:36;30.00;83.00
1447;DHT22;717;51.522;7.266;2022-07-25T13:20:07;30.00;83.30
1447;DHT22;717;51.522;7.266;2022-07-25T13:22:35;30.00;83.40
1447;DHT22;717;51.522;7.266;2022-07-25T13:25:02;29.90;84.40
1447;DHT22;717;51.522;7.266;2022-07-25T13:27:29;29.90;83.70
1447;DHT22;717;51.522;7.266;2022-07-25T13:29:56;29.90;83.70
1447;DHT22;717;51.522;7.266;2022-07-25T13:32:23;29.90;83.70
1447;DHT22;717;51.522;7.266;2022-07-25T13:34:51;29.80;84.80
1447;DHT22;717;51.522;7.266;2022-07-25T13:37:19;29.80;84.30
1447;DHT22;717;51.522;7.266;2022-07-25T13:39:46;29.80;84.00
1447;DHT22;717;51.522;7.266;2022-07-25T13:42:13;29.80;84.10
1447;DHT22;717;51.522;7.266;2022-07-25T13:44:40;29.80;84.30
1447;DHT22;717;51.522;7.266;2022-07-25T13:47:07;29.70;84.40
1447;DHT22;717;51.522;7.266;2022-07-25T13:49:33;29.70;84.70
1447;DHT22;717;51.522;7.266;2022-07-25T13:52:01;29.70;85.20
1447;DHT22;717;51.522;7.266;2022-07-25T13:54:30;29.70;85.10
1447;DHT22;717;51.522;7.266;2022-07-25T13:56:57;29.70;85.60
1447;DHT22;717;51.522;7.266;2022-07-25T13:59:24;29.80;86.10
1447;DHT22;717;51.522;7.266;2022-07-25T14:01:50;29.80;86.00
1447;DHT22;717;51.522;7.266;2022-07-25T14:04:17;29.90;85.70
1447;DHT22;717;51.522;7.266;2022-07-25T14:06:44;29.90;85.70
1447;DHT22;717;51.522;7.266;2022-07-25T14:09:16;30.00;85.40
1447;DHT22;717;51.522;7.266;2022-07-25T14:11:46;30.10;85.70
1447;DHT22;717;51.522;7.266;2022-07-25T14:14:13;30.10;85.20
1447;DHT22;717;51.522;7.266;2022-07-25T14:16:40;30.10;85.10
1447;DHT22;717;51.522;7.266;2022-07-25T14:19:07;30.10;84.90
1447;DHT22;717;51.522;7.266;2022-07-25T14:21:34;30.10;84.90
1447;DHT22;717;51.522;7.266;2022-07-25T14:24:01;30.10;84.80
1447;DHT22;717;51.522;7.266;2022-07-25T14:26:28;30.10;85.30
1447;DHT22;717;51.522;7.266;2022-07-25T14:28:57;30.10;85.20
1447;DHT22;717;51.522;7.266;2022-07-25T14:31:24;30.10;84.50
1447;DHT22;717;51.522;7.266;2022-07-25T14:33:51;30.00;84.20
1447;DHT22;717;51.522;7.266;2022-07-25T14:36:18;29.90;84.00
1447;DHT22;717;51.522;7.266;2022-07-25T14:38:45;29.90;83.90
1447;DHT22;717;51.522;7.266;2022-07-25T14:41:13;29.90;83.80
1447;DHT22;717;51.522;7.266;2022-07-25T14:43:41;29.80;83.40
1447;DHT22;717;51.522;7.266;2022-07-25T14:46:09;29.80;83.00
1447;DHT22;717;51.522;7.266;2022-07-25T14:48:36;29.80;82.50
1447;DHT22;717;51.522;7.266;2022-07-25T14:51:03;29.70;82.40
1447;DHT22;717;51.522;7.266;2022-07-25T14:53:30;29.70;82.20
1447;DHT22;717;51.522;7.266;2022-07-25T14:55:58;29.70;82.70
1447;DHT22;717;51.522;7.266;2022-07-25T14:58:26;29.70;82.10
1447;DHT22;717;51.522;7.266;2022-07-25T15:00:52;29.60;82.10
1447;DHT22;717;51.522;7.266;2022-07-25T15:03:21;29.60;82.20
1447;DHT22;717;51.522;7.266;2022-07-25T15:05:48;29.60;82.40
1447;DHT22;717;51.522;7.266;2022-07-25T15:08:14;29.60;82.60
1447;DHT22;717;51.522;7.266;2022-07-25T15:10:41;29.60;82.70
1447;DHT22;717;51.522;7.266;2022-07-25T15:13:08;29.60;82.70
1447;DHT22;717;51.522;7.266;2022-07-25T15:15:36;29.60;82.90
1447;DHT22;717;51.522;7.266;2022-07-25T15:18:03;29.60;83.30
1447;DHT22;717;51.522;7.266;2022-07-25T15:20:31;29.50;83.80
1447;DHT22;717;51.522;7.266;2022-07-25T15:22:57;29.50;84.20
1447;DHT22;717;51.522;7.266;2022-07-25T15:25:24;29.40;84.50
1447;DHT22;717;51.522;7.266;2022-07-25T15:27:51;29.40;85.00
1447;DHT22;717;51.522;7.266;2022-07-25T15:30:18;29.30;85.40
1447;DHT22;717;51.522;7.266;2022-07-25T15:32:45;29.40;85.60
1447;DHT22;717;51.522;7.266;2022-07-25T15:35:11;29.30;85.60
1447;DHT22;717;51.522;7.266;2022-07-25T15:37:40;29.20;85.50
1447;DHT22;717;51.522;7.266;2022-07-25T15:40:08;29.20;85.50
1447;DHT22;717;51.522;7.266;2022-07-25T15:42:36;29.10;85.60
1447;DHT22;717;51.522;7.266;2022-07-25T15:45:04;29.10;85.60
1447;DHT22;717;51.522;7.266;2022-07-25T15:47:31;29.10;85.60
1447;DHT22;717;51.522;7.266;2022-07-25T15:49:58;29.00;85.40
1447;DHT22;717;51.522;7.266;2022-07-25T15:52:25;29.00;85.60
1447;DHT22;717;51.522;7.266;2022-07-25T15:54:53;28.90;85.70
1447;DHT22;717;51.522;7.266;2022-07-25T15:57:19;28.90;86.00
1447;DHT22;717;51.522;7.266;2022-07-25T15:59:46;28.80;86.20
1447;DHT22;717;51.522;7.266;2022-07-25T16:02:13;28.80;86.30
1447;DHT22;717;51.522;7.266;2022-07-25T16:04:40;28.80;86.70
1447;DHT22;717;51.522;7.266;2022-07-25T16:07:07;28.70;86.60
1447;DHT22;717;51.522;7.266;2022-07-25T16:09:34;28.70;86.00
1447;DHT22;717;51.522;7.266;2022-07-25T16:12:02;28.60;85.70
1447;DHT22;717;51.522;7.266;2022-07-25T16:14:29;28.50;85.40
1447;DHT22;717;51.522;7.266;2022-07-25T16:16:56;28.50;85.40
1447;DHT22;717;51.522;7.266;2022-07-25T16:19:23;28.50;85.20
1447;DHT22;717;51.522;7.266;2022-07-25T16:21:50;28.50;84.40